Time;durP1;ratioP1;P1;durP2;ratioP2;P2;SDS_P1;SDS_P2;PMS_P1;PMS_P2;Temp;Humidity;BMP_temperature;BMP_pressure;BME280_temperature;BME280_humidity;BME280_pressure;Samples;Min_cycle;Max_cycle;Signal;HPM_P1;HPM_P2
2022/09/08 00:03:50;;;;;;;5.13;3.60;;;21.50;93.10;;;;;;10558176;28;20425;-64
2022/09/08 00:08:53;;;;;;;5.82;3.80;;;21.40;93.10;;;;;;10557557;28;20050;-64
2022/09/08 00:13:58;;;;;;;4.97;3.40;;;21.40;93.10;;;;;;10556894;28;20028;-69
2022/09/08 00:18:59;;;;;;;5.35;4.03;;;21.40;93.10;;;;;;10554295;28;20050;-64
2022/09/08 00:24:00;;;;;;;3.85;3.38;;;21.40;93.10;;;;;;10556179;28;20545;-65
2022/09/08 00:29:01;;;;;;;4.13;3.33;;;21.40;93.10;;;;;;10558943;28;20051;-64
2022/09/08 00:34:02;;;;;;;3.40;2.88;;;21.30;93.10;;;;;;10567798;28;20557;-64
2022/09/08 00:39:02;;;;;;;4.20;3.67;;;21.30;93.10;;;;;;10569995;28;20024;-66
2022/09/08 00:44:40;;;;;;;5.05;4.28;;;21.30;93.10;;;;;;10567082;28;20054;-65
2022/09/08 00:49:45;;;;;;;5.90;4.10;;;21.30;93.10;;;;;;10566333;28;20039;-64
2022/09/08 00:54:47;;;;;;;8.05;4.28;;;21.30;93.10;;;;;;10568912;28;20027;-65
2022/09/08 00:59:48;;;;;;;4.55;4.07;;;21.30;93.10;;;;;;10567007;28;20488;-66
2022/09/08 01:05:08;;;;;;;5.22;4.00;;;21.30;93.40;;;;;;10568941;28;20023;-65
2022/09/08 01:15:46;;;;;;;;;;;21.20;93.10;;;;;;10566457;28;20023;-66
2022/09/08 01:21:03;;;;;;;4.25;3.85;;;21.20;93.10;;;;;;10567032;28;19912;-64
2022/09/08 01:26:32;;;;;;;4.88;4.47;;;21.20;93.10;;;;;;10562939;28;20043;-64
2022/09/08 01:31:38;;;;;;;4.97;4.47;;;21.20;93.10;;;;;;10560382;28;20097;-66
2022/09/08 01:36:39;;;;;;;7.35;4.93;;;21.20;93.10;;;;;;10566971;28;20024;-67
2022/09/08 01:41:40;;;;;;;4.97;4.00;;;21.20;93.10;;;;;;10547784;28;20035;-68
2022/09/08 01:46:40;;;;;;;6.47;4.95;;;21.20;93.10;;;;;;10566807;28;20047;-69
2022/09/08 01:51:41;;;;;;;5.85;4.70;;;21.20;93.10;;;;;;10565188;28;20043;-65
2022/09/08 01:56:42;;;;;;;6.90;4.93;;;21.10;93.10;;;;;;10567135;28;20026;-67
2022/09/08 02:01:42;;;;;;;5.07;4.53;;;21.10;93.10;;;;;;10564275;28;20028;-65
2022/09/08 02:06:43;;;;;;;7.40;5.45;;;21.10;93.10;;;;;;10565152;28;20395;-65
2022/09/08 02:11:48;;;;;;;6.10;5.10;;;21.10;93.10;;;;;;10566707;28;20035;-65
2022/09/08 02:16:48;;;;;;;7.63;5.25;;;21.10;93.10;;;;;;10565610;28;20023;-67
2022/09/08 02:21:49;;;;;;;5.97;4.78;;;21.10;93.10;;;;;;10559305;28;20383;-68
2022/09/08 02:26:50;;;;;;;4.97;4.32;;;21.10;93.10;;;;;;10567355;28;20138;-64
2022/09/08 02:31:50;;;;;;;6.70;4.97;;;21.10;93.10;;;;;;10566847;28;20130;-64
2022/09/08 02:36:51;;;;;;;4.75;4.28;;;21.10;93.10;;;;;;10564875;28;20123;-64
2022/09/08 02:41:53;;;;;;;4.47;4.00;;;21.00;93.10;;;;;;10562834;28;20036;-68
2022/09/08 02:46:54;;;;;;;6.15;5.05;;;21.00;93.10;;;;;;10565592;28;20034;-63
2022/09/08 02:51:54;;;;;;;5.60;4.97;;;21.00;93.10;;;;;;10565730;28;20405;-67
2022/09/08 02:56:55;;;;;;;7.72;5.47;;;21.00;93.10;;;;;;10566149;28;20168;-68
2022/09/08 03:01:58;;;;;;;6.50;5.60;;;21.00;93.10;;;;;;10564690;28;20035;-65
2022/09/08 03:06:58;;;;;;;5.95;5.05;;;21.00;93.10;;;;;;10566530;28;20030;-64
2022/09/08 03:11:59;;;;;;;6.30;5.18;;;21.00;93.10;;;;;;10563032;28;20036;-67
2022/09/08 03:17:00;;;;;;;6.45;5.32;;;21.00;93.10;;;;;;10562654;28;20026;-65
2022/09/08 03:22:01;;;;;;;6.40;5.45;;;21.00;93.10;;;;;;10563806;28;20487;-63
2022/09/08 03:27:01;;;;;;;7.15;5.47;;;21.00;93.20;;;;;;10564631;28;20396;-65
2022/09/08 03:32:03;;;;;;;6.53;5.53;;;21.00;93.20;;;;;;10562743;28;20035;-67
2022/09/08 03:37:03;;;;;;;8.13;5.72;;;21.00;93.20;;;;;;10562598;28;20032;-64
2022/09/08 03:42:05;;;;;;;7.18;5.88;;;21.00;93.20;;;;;;10562072;28;20510;-64
2022/09/08 03:47:06;;;;;;;6.63;5.50;;;20.90;93.20;;;;;;10563925;28;20101;-63
2022/09/08 03:52:08;;;;;;;6.63;5.78;;;20.90;93.20;;;;;;10562239;28;20035;-63
2022/09/08 03:57:08;;;;;;;7.50;5.85;;;20.90;93.20;;;;;;10559792;28;20020;-64
2022/09/08 04:02:10;;;;;;;6.53;5.57;;;20.90;93.50;;;;;;10559733;28;20031;-65
2022/09/08 04:07:11;;;;;;;6.22;5.55;;;20.90;93.20;;;;;;10556986;28;20016;-63
2022/09/08 04:12:12;;;;;;;7.40;5.40;;;20.90;93.30;;;;;;10551712;28;20032;-68
2022/09/08 04:17:13;;;;;;;6.43;5.40;;;20.90;93.30;;;;;;10567850;28;20387;-64
2022/09/08 04:22:14;;;;;;;5.65;4.75;;;20.90;93.30;;;;;;10572067;28;20039;-64
2022/09/08 04:27:16;;;;;;;5.57;4.38;;;20.80;93.30;;;;;;10567653;28;20070;-63
2022/09/08 04:32:18;;;;;;;5.47;4.55;;;20.80;93.30;;;;;;10573371;28;20375;-64
2022/09/08 04:37:19;;;;;;;5.35;3.78;;;20.80;93.30;;;;;;10565569;28;20028;-67
2022/09/08 04:42:22;;;;;;;5.35;4.53;;;20.80;93.30;;;;;;10554216;28;20752;-65
2022/09/08 04:47:23;;;;;;;5.88;4.40;;;20.80;93.40;;;;;;10566247;28;20437;-66
2022/09/08 04:52:25;;;;;;;5.07;3.83;;;20.80;93.40;;;;;;10549179;28;20028;-64
2022/09/08 04:57:27;;;;;;;5.18;4.32;;;20.80;93.40;;;;;;10565393;28;20114;-69
2022/09/08 05:02:29;;;;;;;4.57;3.50;;;20.80;93.40;;;;;;10568174;28;20122;-64
2022/09/08 05:07:30;;;;;;;6.43;3.97;;;20.80;93.40;;;;;;10567491;28;20043;-64
2022/09/08 05:12:32;;;;;;;6.40;3.78;;;20.70;93.40;;;;;;10559194;28;20024;-64
2022/09/08 05:17:32;;;;;;;5.45;3.50;;;20.80;93.40;;;;;;10564419;28;20036;-63
2022/09/08 05:22:33;;;;;;;4.53;3.70;;;20.80;93.50;;;;;;10568629;28;20069;-64
2022/09/08 05:27:34;;;;;;;6.07;3.70;;;20.70;93.50;;;;;;10552834;28;20047;-64
2022/09/08 05:32:35;;;;;;;6.60;3.78;;;20.70;93.50;;;;;;10566943;28;20084;-64
2022/09/08 05:37:36;;;;;;;5.75;3.45;;;20.70;93.50;;;;;;10566945;28;20035;-65
2022/09/08 05:42:36;;;;;;;5.18;3.40;;;20.70;93.50;;;;;;10552314;28;20388;-65
2022/09/08 05:47:37;;;;;;;6.60;4.32;;;20.70;93.50;;;;;;10555970;28;20150;-64
2022/09/08 05:52:38;;;;;;;6.10;3.92;;;20.70;93.60;;;;;;10518947;28;20477;-63
2022/09/08 05:57:39;;;;;;;5.30;4.20;;;20.70;93.60;;;;;;10486301;28;20426;-64
2022/09/08 06:02:40;;;;;;;4.85;3.70;;;20.70;93.60;;;;;;10482893;28;20453;-64
2022/09/08 06:07:41;;;;;;;6.57;4.85;;;20.70;93.60;;;;;;10487424;28;20864;-64
2022/09/08 06:12:42;;;;;;;5.78;4.25;;;20.70;93.60;;;;;;10488953;28;20586;-68
2022/09/08 06:17:43;;;;;;;6.97;4.93;;;20.70;93.60;;;;;;10484301;28;20023;-65
2022/09/08 06:22:44;;;;;;;7.20;5.00;;;20.70;93.60;;;;;;10482999;28;20286;-65
2022/09/08 06:27:56;;;;;;;5.20;4.32;;;20.70;93.60;;;;;;10541928;28;20058;-63
2022/09/08 06:33:02;;;;;;;7.05;4.70;;;20.70;93.70;;;;;;10524867;28;20051;-64
2022/09/08 06:38:19;;;;;;;5.97;4.65;;;20.70;93.70;;;;;;10565739;28;20023;-63
2022/09/08 06:43:44;;;;;;;4.75;4.10;;;20.70;93.70;;;;;;10530596;28;20026;-63
2022/09/08 06:48:45;;;;;;;4.97;3.88;;;20.70;93.70;;;;;;10498331;28;20061;-63
2022/09/08 06:53:57;;;;;;;4.55;3.50;;;20.70;93.70;;;;;;10493913;28;20024;-64
2022/09/08 06:59:01;;;;;;;5.50;3.20;;;20.70;93.80;;;;;;10476750;28;20347;-63
2022/09/08 07:04:02;;;;;;;4.47;3.72;;;20.60;93.70;;;;;;10482359;28;20043;-64
2022/09/08 07:09:12;;;;;;;3.90;2.90;;;20.70;93.70;;;;;;10485831;28;20483;-64
2022/09/08 07:14:26;;;;;;;4.57;3.42;;;20.70;93.70;;;;;;10485488;28;20047;-63
2022/09/08 07:19:52;;;;;;;3.67;2.67;;;20.70;93.70;;;;;;10479066;28;20536;-63
2022/09/08 07:25:01;;;;;;;7.57;2.92;;;20.70;93.70;;;;;;10467702;28;20127;-63
2022/09/08 07:30:04;;;;;;;4.75;2.90;;;20.70;93.70;;;;;;10471855;28;20039;-63
2022/09/08 07:35:13;;;;;;;3.40;2.40;;;20.70;93.70;;;;;;10466513;28;20121;-63
2022/09/08 07:40:21;;;;;;;3.20;2.13;;;20.70;93.70;;;;;;10458068;28;20023;-62
2022/09/08 07:45:30;;;;;;;;;;;20.60;93.70;;;;;;10453192;28;20667;-63
2022/09/08 07:50:54;;;;;;;4.18;2.20;;;20.60;93.80;;;;;;10478159;28;19928;-69
2022/09/08 07:56:23;;;;;;;2.55;2.13;;;20.60;93.70;;;;;;10476462;28;20036;-65
2022/09/08 08:01:43;;;;;;;4.47;2.00;;;20.60;93.70;;;;;;10455043;28;20867;-63
2022/09/08 08:06:48;;;;;;;3.88;2.33;;;20.60;93.70;;;;;;10478821;28;20120;-63
2022/09/08 08:12:10;;;;;;;3.03;2.25;;;20.60;93.70;;;;;;10480855;28;20488;-63
2022/09/08 08:17:17;;;;;;;3.75;2.00;;;20.60;93.80;;;;;;10476967;28;20035;-63
2022/09/08 08:22:38;;;;;;;2.67;2.15;;;20.60;93.80;;;;;;10464313;28;20031;-63
2022/09/08 08:27:58;;;;;;;2.85;2.15;;;20.60;93.80;;;;;;10425307;28;20846;-63
2022/09/08 08:33:03;;;;;;;3.50;2.10;;;20.60;93.80;;;;;;10475838;28;20034;-69
2022/09/08 08:38:06;;;;;;;2.95;1.90;;;20.60;93.80;;;;;;10460621;28;20050;-64
2022/09/08 08:43:28;;;;;;;3.15;1.90;;;20.60;93.80;;;;;;10465513;28;20482;-63
2022/09/08 08:48:54;;;;;;;3.65;1.70;;;20.60;93.80;;;;;;10476015;28;20058;-62
2022/09/08 08:54:22;;;;;;;4.25;1.70;;;20.50;93.90;;;;;;10471505;28;20221;-62
2022/09/08 08:59:38;;;;;;;2.83;1.70;;;20.50;93.90;;;;;;10486180;28;20556;-63
2022/09/08 09:04:42;;;;;;;3.45;1.80;;;20.50;93.90;;;;;;10461351;28;20196;-62
2022/09/08 09:09:52;;;;;;;2.83;1.52;;;20.50;93.90;;;;;;10467164;28;20094;-63
2022/09/08 09:15:31;;;;;;;4.15;1.48;;;20.50;93.90;;;;;;10489727;28;20390;-62
2022/09/08 09:20:42;;;;;;;2.15;1.50;;;20.50;94.00;;;;;;10485867;28;20385;-62
2022/09/08 09:26:12;;;;;;;2.90;1.60;;;20.50;93.90;;;;;;10479981;28;20311;-62
2022/09/08 09:31:50;;;;;;;4.70;1.65;;;20.50;94.00;;;;;;10472195;28;20158;-63
2022/09/08 09:37:11;;;;;;;2.45;1.60;;;20.50;94.00;;;;;;10482723;28;20132;-62
2022/09/08 09:42:15;;;;;;;1.55;1.38;;;20.50;94.00;;;;;;10490314;28;20039;-63
2022/09/08 09:47:27;;;;;;;2.40;1.40;;;20.50;93.90;;;;;;10493384;28;20517;-62
2022/09/08 09:53:16;;;;;;;2.55;1.50;;;20.50;94.00;;;;;;10486400;28;20138;-62
2022/09/08 09:58:50;;;;;;;1.88;1.45;;;20.50;94.00;;;;;;10494598;28;20043;-63
2022/09/08 10:03:50;;;;;;;1.73;1.30;;;20.50;94.00;;;;;;10491103;28;20495;-62
2022/09/08 10:09:13;;;;;;;3.58;1.30;;;20.50;93.90;;;;;;10491416;28;20070;-62
2022/09/08 10:14:43;;;;;;;5.25;1.25;;;20.50;94.00;;;;;;10485984;28;20031;-63
2022/09/08 10:20:28;;;;;;;2.42;1.20;;;20.40;94.00;;;;;;10389392;28;20032;-62
2022/09/08 10:25:47;;;;;;;2.78;1.20;;;20.40;94.00;;;;;;10473656;28;20096;-62
2022/09/08 10:31:15;;;;;;;2.05;1.30;;;20.40;94.00;;;;;;10472515;28;20484;-62
2022/09/08 10:36:16;;;;;;;2.55;1.50;;;20.40;94.00;;;;;;10477689;28;20243;-62
2022/09/08 10:42:08;;;;;;;0.98;0.93;;;20.40;93.90;;;;;;10477159;28;20450;-62
2022/09/08 10:47:11;;;;;;;1.52;1.10;;;20.40;93.90;;;;;;10443511;28;20081;-64
2022/09/08 10:52:32;;;;;;;1.80;1.30;;;20.40;94.00;;;;;;10473424;28;20051;-61
2022/09/08 10:57:55;;;;;;;3.35;1.23;;;20.40;94.00;;;;;;10475612;28;20231;-62
2022/09/08 11:03:33;;;;;;;1.35;1.20;;;20.40;93.90;;;;;;10479226;28;20127;-62
2022/09/08 11:09:15;;;;;;;1.48;1.00;;;20.40;93.90;;;;;;10482516;28;20723;-66
2022/09/08 11:14:19;;;;;;;1.90;1.23;;;20.50;93.90;;;;;;10441493;28;20039;-62
2022/09/08 11:19:41;;;;;;;1.52;1.08;;;20.50;93.90;;;;;;10482093;28;20027;-64
2022/09/08 11:25:03;;;;;;;1.88;1.10;;;20.50;93.80;;;;;;10457643;28;20791;-62
2022/09/08 11:30:21;;;;;;;2.28;1.13;;;20.50;93.80;;;;;;10460465;28;20042;-62
2022/09/08 11:35:21;;;;;;;;;;;20.50;93.80;;;;;;10477110;28;20231;-62
2022/09/08 11:40:41;;;;;;;2.72;1.30;;;20.50;93.80;;;;;;10479069;28;20775;-64
2022/09/08 11:46:02;;;;;;;3.60;1.85;;;20.60;94.00;;;;;;10470590;28;20455;-63
2022/09/08 11:51:15;;;;;;;3.70;1.65;;;20.60;93.70;;;;;;10470986;28;20043;-64
2022/09/08 11:56:31;;;;;;;1.80;1.33;;;20.60;93.60;;;;;;10464780;28;20027;-63
2022/09/08 12:02:17;;;;;;;4.95;1.85;;;20.60;93.60;;;;;;10474226;28;20531;-65
2022/09/08 12:07:33;;;;;;;3.97;2.38;;;20.70;93.70;;;;;;10288312;28;20036;-64
2022/09/08 12:12:57;;;;;;;2.83;1.83;;;20.70;93.70;;;;;;10435180;28;20052;-64
2022/09/08 12:18:12;;;;;;;4.90;2.00;;;20.80;93.70;;;;;;10468216;28;20043;-63
2022/09/08 12:23:35;;;;;;;6.30;2.00;;;20.80;93.70;;;;;;10470844;28;20137;-67
2022/09/08 12:28:58;;;;;;;5.15;2.15;;;20.90;93.60;;;;;;10474470;28;20047;-64
2022/09/08 12:34:17;;;;;;;2.40;1.80;;;20.90;93.50;;;;;;10484297;28;20054;-64
2022/09/08 12:39:37;;;;;;;3.10;2.00;;;20.90;93.50;;;;;;10488369;28;20624;-64
2022/09/08 12:44:50;;;;;;;1.88;1.60;;;20.90;93.50;;;;;;10484782;28;20035;-65
2022/09/08 12:50:09;;;;;;;2.88;2.00;;;21.00;93.40;;;;;;10482720;28;20035;-65
2022/09/08 12:55:21;;;;;;;4.68;2.42;;;20.90;93.40;;;;;;10482262;28;20032;-63
2022/09/08 13:00:30;;;;;;;3.60;2.03;;;21.00;93.50;;;;;;10479213;28;20012;-65
2022/09/08 13:05:43;;;;;;;3.25;2.47;;;20.90;93.60;;;;;;10484729;28;20508;-64
2022/09/08 13:10:46;;;;;;;2.40;2.17;;;20.90;93.70;;;;;;10486026;28;20125;-64
2022/09/08 13:16:24;;;;;;;3.00;2.22;;;20.80;93.70;;;;;;10485121;28;20582;-64
2022/09/08 13:21:39;;;;;;;4.32;2.38;;;20.90;93.70;;;;;;10454281;28;20055;-63
2022/09/08 13:26:50;;;;;;;3.10;2.38;;;21.00;93.60;;;;;;10480423;28;20555;-64
2022/09/08 13:32:33;;;;;;;2.92;2.17;;;21.00;93.50;;;;;;10482369;28;20047;-63
2022/09/08 13:37:48;;;;;;;5.35;2.38;;;21.00;93.40;;;;;;10475541;28;20123;-66
2022/09/08 13:43:20;;;;;;;3.92;2.50;;;21.10;93.50;;;;;;10482393;28;20034;-67
2022/09/08 13:48:41;;;;;;;3.00;2.20;;;21.10;93.40;;;;;;10485563;28;20397;-65
2022/09/08 13:54:09;;;;;;;2.90;2.13;;;21.20;93.30;;;;;;10484732;28;20466;-66
2022/09/08 13:59:49;;;;;;;2.75;2.50;;;21.30;93.30;;;;;;10470413;28;20448;-65
2022/09/08 14:04:57;;;;;;;3.10;2.45;;;21.30;93.20;;;;;;10474166;28;20028;-65
2022/09/08 14:10:15;;;;;;;4.80;2.20;;;21.20;93.10;;;;;;10471895;28;20035;-67
2022/09/08 14:15:27;;;;;;;3.30;2.53;;;21.30;93.10;;;;;;10477329;28;20028;-68
2022/09/08 14:20:48;;;;;;;3.28;2.28;;;21.30;93.10;;;;;;10467007;28;20119;-65
2022/09/08 14:25:51;;;;;;;3.55;2.40;;;21.50;92.90;;;;;;10474362;28;20358;-66
2022/09/08 14:30:56;;;;;;;3.97;2.60;;;21.60;92.70;;;;;;10465093;28;20309;-65
2022/09/08 14:36:07;;;;;;;3.92;2.67;;;21.80;92.50;;;;;;10476800;28;20020;-64
2022/09/08 14:41:20;;;;;;;5.20;2.70;;;21.70;92.50;;;;;;10470407;28;20031;-65
2022/09/08 14:46:52;;;;;;;2.67;2.45;;;21.60;92.50;;;;;;10473095;28;20032;-65
2022/09/08 14:52:13;;;;;;;3.20;2.90;;;21.50;92.70;;;;;;10480067;28;20136;-67
2022/09/08 14:57:20;;;;;;;4.50;3.17;;;21.40;92.80;;;;;;10473133;28;20260;-65
2022/09/08 15:02:25;;;;;;;4.27;2.27;;;21.40;92.90;;;;;;10482220;28;20035;-67
2022/09/08 15:07:26;;;;;;;3.63;2.60;;;21.60;92.70;;;;;;10479179;28;20552;-64
2022/09/08 15:12:37;;;;;;;4.93;2.67;;;21.80;92.60;;;;;;10475942;28;20058;-67
2022/09/08 15:17:52;;;;;;;3.67;2.78;;;22.00;92.30;;;;;;10472328;28;20016;-66
2022/09/08 15:23:20;;;;;;;4.28;2.63;;;22.00;92.20;;;;;;10476904;28;20030;-66
2022/09/08 15:28:26;;;;;;;3.30;2.42;;;22.10;92.20;;;;;;10478696;28;20067;-69
2022/09/08 15:33:51;;;;;;;4.07;2.53;;;22.20;92.10;;;;;;10477714;28;20386;-67
2022/09/08 15:39:03;;;;;;;3.72;2.88;;;22.30;92.00;;;;;;10477479;28;20039;-69
2022/09/08 15:44:18;;;;;;;4.22;2.60;;;22.30;92.00;;;;;;10486304;28;20503;-68
2022/09/08 15:49:51;;;;;;;3.90;2.78;;;22.30;92.10;;;;;;10482894;28;20270;-67
2022/09/08 15:55:18;;;;;;;5.88;2.40;;;22.30;92.20;;;;;;10478719;28;20093;-65
2022/09/08 16:00:52;;;;;;;3.30;2.33;;;22.10;92.20;;;;;;10449853;28;20378;-66
2022/09/08 16:05:55;;;;;;;3.50;2.53;;;22.10;92.30;;;;;;10476597;28;20138;-65
2022/09/08 16:11:10;;;;;;;2.90;2.50;;;22.00;92.40;;;;;;10476584;28;20668;-67
2022/09/08 16:16:30;;;;;;;5.43;2.55;;;22.00;92.50;;;;;;10459592;28;20435;-68
2022/09/08 16:21:37;;;;;;;5.78;2.78;;;21.80;92.40;;;;;;10480024;28;20135;-65
2022/09/08 16:26:54;;;;;;;3.88;2.33;;;21.90;92.50;;;;;;10472504;28;20664;-66
2022/09/08 16:32:00;;;;;;;;;;;21.90;92.60;;;;;;10477155;28;20373;-65
2022/09/08 16:37:07;;;;;;;3.30;2.40;;;21.90;92.60;;;;;;10471980;28;20034;-66
2022/09/08 16:42:33;;;;;;;3.38;2.30;;;21.80;92.80;;;;;;10467305;28;20036;-66
2022/09/08 16:47:44;;;;;;;2.92;2.28;;;21.80;92.80;;;;;;10467577;28;20388;-66
2022/09/08 16:53:06;;;;;;;6.68;2.20;;;21.80;92.90;;;;;;10465724;28;20381;-68
2022/09/08 16:58:32;;;;;;;2.78;2.30;;;21.70;93.00;;;;;;10470621;28;20105;-68
2022/09/08 17:03:43;;;;;;;3.35;2.20;;;21.70;93.00;;;;;;10463206;28;20231;-64
2022/09/08 17:08:45;;;;;;;3.22;2.40;;;21.70;93.10;;;;;;10472237;28;20047;-66
2022/09/08 17:13:47;;;;;;;2.60;2.30;;;21.60;93.20;;;;;;10469137;28;20170;-66
2022/09/08 17:18:56;;;;;;;3.13;2.20;;;21.70;93.20;;;;;;10468524;28;20807;-65
2022/09/08 17:24:15;;;;;;;5.15;2.22;;;21.60;93.30;;;;;;10479208;28;20032;-65
2022/09/08 17:29:36;;;;;;;3.08;2.78;;;21.60;93.30;;;;;;10477526;28;20209;-67
2022/09/08 17:34:38;;;;;;;2.90;2.45;;;21.50;93.30;;;;;;10477508;28;20023;-66
2022/09/08 17:40:00;;;;;;;4.65;2.28;;;21.50;93.40;;;;;;10477680;28;20268;-66
2022/09/08 17:45:05;;;;;;;4.38;3.05;;;21.50;93.40;;;;;;10477380;28;20264;-67
2022/09/08 17:50:13;;;;;;;3.08;2.70;;;21.50;93.50;;;;;;10469059;28;20035;-66
2022/09/08 17:55:26;;;;;;;4.53;2.23;;;21.50;93.50;;;;;;10476880;28;20312;-67
2022/09/08 18:00:28;;;;;;;4.22;2.58;;;21.40;93.50;;;;;;10471108;28;20286;-64
2022/09/08 18:05:34;;;;;;;5.35;2.38;;;21.40;93.60;;;;;;10480277;28;20312;-72
2022/09/08 18:11:05;;;;;;;3.72;2.17;;;21.40;93.60;;;;;;10478465;28;20469;-64
2022/09/08 18:16:16;;;;;;;4.07;2.63;;;21.30;93.60;;;;;;10472708;28;20472;-64
2022/09/08 18:21:26;;;;;;;4.22;3.25;;;21.30;93.60;;;;;;10473233;28;20061;-67
2022/09/08 18:26:46;;;;;;;5.35;2.50;;;21.30;93.60;;;;;;10479095;28;20052;-73
2022/09/08 18:32:21;;;;;;;5.22;2.58;;;21.30;93.60;;;;;;10559500;28;20032;-64
2022/09/08 18:37:26;;;;;;;2.45;2.25;;;21.20;93.60;;;;;;10560403;28;20102;-66
2022/09/08 18:42:44;;;;;;;3.42;2.35;;;21.20;93.60;;;;;;10558101;28;20519;-65
2022/09/08 18:48:15;;;;;;;3.10;2.47;;;21.20;93.60;;;;;;10556691;28;20019;-65
2022/09/08 18:53:28;;;;;;;3.53;2.33;;;21.20;93.60;;;;;;10557415;27;20382;-68
2022/09/08 18:58:44;;;;;;;2.55;2.28;;;21.20;93.70;;;;;;10559969;28;20024;-64
2022/09/08 19:03:52;;;;;;;2.88;2.30;;;21.10;93.70;;;;;;10558441;28;20059;-65
2022/09/08 19:08:54;;;;;;;;;;;21.10;93.70;;;;;;10551269;28;20660;-65
2022/09/08 19:14:25;;;;;;;2.72;2.03;;;21.00;93.70;;;;;;10558333;28;20322;-64
2022/09/08 19:19:33;;;;;;;2.58;1.92;;;21.00;93.70;;;;;;10557868;28;20031;-64
2022/09/08 19:24:36;;;;;;;3.20;2.00;;;21.00;94.10;;;;;;10549630;28;20039;-74
2022/09/08 19:29:50;;;;;;;3.15;2.25;;;21.00;93.80;;;;;;10557478;28;20058;-64
2022/09/08 19:35:27;;;;;;;3.90;1.83;;;20.90;93.80;;;;;;10559435;28;20096;-65
2022/09/08 19:40:35;;;;;;;3.22;2.28;;;20.90;93.90;;;;;;10531290;28;20040;-64
2022/09/08 19:45:55;;;;;;;4.85;2.20;;;20.90;93.90;;;;;;10549722;28;20165;-70
2022/09/08 19:51:10;;;;;;;3.47;2.00;;;20.90;93.90;;;;;;10553582;28;20073;-68
2022/09/08 19:56:35;;;;;;;5.90;2.63;;;20.80;93.80;;;;;;10553468;28;20529;-64
2022/09/08 20:01:56;;;;;;;1.77;1.67;;;20.80;93.80;;;;;;10527477;28;20020;-64
2022/09/08 20:07:07;;;;;;;2.75;2.00;;;20.80;93.80;;;;;;10552617;28;20028;-65
2022/09/08 20:12:14;;;;;;;4.03;1.85;;;20.70;93.80;;;;;;10552374;28;20035;-64
2022/09/08 20:17:38;;;;;;;3.70;1.83;;;20.70;93.80;;;;;;10556028;28;20028;-66
2022/09/08 20:22:53;;;;;;;5.10;1.83;;;20.70;93.80;;;;;;10558766;28;20072;-66
2022/09/08 20:28:03;;;;;;;3.20;1.77;;;20.70;93.80;;;;;;10557187;28;20115;-68
2022/09/08 20:33:23;;;;;;;2.97;1.70;;;20.70;93.80;;;;;;10556861;28;20043;-74
2022/09/08 20:38:37;;;;;;;1.92;1.63;;;20.70;93.70;;;;;;10538279;28;20032;-65
2022/09/08 20:43:56;;;;;;;3.60;2.05;;;20.60;93.80;;;;;;10556558;28;20024;-65
2022/09/08 20:49:21;;;;;;;1.50;1.40;;;20.60;93.70;;;;;;10558921;28;20050;-67
2022/09/08 20:54:28;;;;;;;2.78;1.65;;;20.60;93.60;;;;;;10562701;28;20028;-64
2022/09/08 20:59:30;;;;;;;2.53;1.50;;;20.50;93.60;;;;;;10563282;28;20039;-65
2022/09/08 21:04:37;;;;;;;1.95;1.20;;;20.50;93.60;;;;;;10560957;28;20023;-65
2022/09/08 21:09:45;;;;;;;1.40;1.30;;;20.50;93.60;;;;;;10558492;28;20042;-65
2022/09/08 21:15:13;;;;;;;2.63;1.52;;;20.50;93.60;;;;;;10564233;28;20020;-65
2022/09/08 21:20:21;;;;;;;3.03;1.35;;;20.40;93.50;;;;;;10557183;28;20468;-65
2022/09/08 21:25:47;;;;;;;1.60;1.25;;;20.40;93.50;;;;;;10557700;28;20619;-64
2022/09/08 21:30:59;;;;;;;1.83;1.10;;;20.40;93.40;;;;;;10560634;28;20050;-65
2022/09/08 21:36:16;;;;;;;1.45;1.10;;;20.40;93.50;;;;;;10555649;28;20089;-66
2022/09/08 21:41:31;;;;;;;1.40;1.30;;;20.40;93.40;;;;;;10556376;28;20082;-66
2022/09/08 21:46:52;;;;;;;2.03;1.45;;;20.30;93.40;;;;;;10555495;27;20110;-64
2022/09/08 21:52:12;;;;;;;2.13;1.17;;;20.30;93.40;;;;;;10559051;28;20523;-66
2022/09/08 21:57:26;;;;;;;2.47;1.25;;;20.20;93.30;;;;;;10556919;28;20032;-65
2022/09/08 22:02:52;;;;;;;10.00;1.40;;;20.20;93.30;;;;;;10560865;28;20454;-64
2022/09/08 22:08:10;;;;;;;2.55;1.15;;;20.20;93.40;;;;;;10563041;28;20020;-70
2022/09/08 22:13:27;;;;;;;1.58;1.17;;;20.20;93.40;;;;;;10561769;28;20054;-65
2022/09/08 22:18:35;;;;;;;1.65;1.15;;;20.20;93.40;;;;;;10555271;28;20027;-64
2022/09/08 22:23:39;;;;;;;2.40;1.13;;;20.10;93.30;;;;;;10561080;28;20030;-64
2022/09/08 22:28:45;;;;;;;1.63;1.35;;;20.10;93.30;;;;;;10563210;28;20051;-74
2022/09/08 22:34:01;;;;;;;1.10;0.90;;;20.10;93.30;;;;;;10562305;28;20061;-65
2022/09/08 22:39:39;;;;;;;1.92;1.40;;;20.10;93.30;;;;;;10560195;28;20028;-68
2022/09/08 22:44:46;;;;;;;;;;;20.00;93.20;;;;;;10562511;28;20020;-64
2022/09/08 22:49:56;;;;;;;1.17;1.00;;;20.00;93.20;;;;;;10557153;28;19915;-65
2022/09/08 22:55:00;;;;;;;2.47;1.20;;;20.00;93.30;;;;;;10565585;28;20033;-65
2022/09/08 23:00:06;;;;;;;1.90;1.00;;;20.00;93.30;;;;;;10560930;28;20060;-65
2022/09/08 23:05:13;;;;;;;2.28;1.33;;;19.90;93.30;;;;;;10559935;28;20024;-69
2022/09/08 23:10:17;;;;;;;1.38;1.10;;;19.90;93.20;;;;;;10564077;28;20109;-67
2022/09/08 23:15:30;;;;;;;2.55;1.35;;;19.90;93.30;;;;;;10560936;28;20110;-66
2022/09/08 23:21:20;;;;;;;1.75;1.30;;;19.90;93.20;;;;;;10557603;28;20020;-64
2022/09/08 23:26:26;;;;;;;2.50;1.50;;;19.80;93.10;;;;;;10545056;28;20357;-66
2022/09/08 23:31:47;;;;;;;3.83;1.40;;;19.80;93.20;;;;;;10562853;28;20523;-65
2022/09/08 23:37:00;;;;;;;1.38;1.27;;;19.80;93.10;;;;;;10560793;28;20076;-64
2022/09/08 23:42:01;;;;;;;4.50;1.20;;;19.80;93.10;;;;;;10560862;28;20066;-66
2022/09/08 23:47:03;;;;;;;2.70;1.40;;;19.80;93.20;;;;;;10563911;28;20111;-65
2022/09/08 23:52:07;;;;;;;2.75;1.25;;;19.70;93.10;;;;;;10563361;28;20120;-65
2022/09/08 23:57:08;;;;;;;1.35;1.15;;;19.70;93.10;;;;;;10560977;28;20099;-71
